Spar Draco — LAFO6 — position and weather

sailwx.info

Track history (hours):
 
Tides and Currents Weather Stations Pressure Air Temp Water Temp Dewpoint Dewpoint Depression Visibility Wind Speed Wind Dir Waves Ship Positions

Spar Draco

Last reported at 2014-Sep-05 06:09 UTC. Time now 2014-Oct-20 22:57 UTC.
Position N 01°25' E 103°56'.
Warning: this ship's position is 45 days out of date.

Length 190 m; draft 6.7 m.

Type: Other ship. MMSI: 257799000.

Date/timePositionNaut miles runAvg speedWind from/ knotsBaromVisibWave heightAir tempDewpointWater temp
2014-Sep-05 06:09N 01°25' E 103°56'2 3.0
2014-Sep-05 05:31N 01°24' E 103°58'2 2.5
2014-Sep-05 04:33N 01°24' E 103°60'2 2.3
2014-Sep-05 03:33N 01°22' E 104°02'2 1.9
2014-Sep-05 02:32N 01°21' E 104°03'2 1.9
2014-Sep-05 01:15N 01°19' E 104°04'0 0.3
2014-Sep-05 00:30N 01°19' E 104°04'1 0.8
2014-Sep-04 23:33N 01°19' E 104°05'2 2.2
2014-Sep-04 22:32N 01°17' E 104°05'3 3.1
2014-Sep-04 21:33N 01°15' E 104°03'4 4.0
2014-Sep-04 20:33N 01°14' E 103°59'4 4.1
2014-Sep-04 19:33N 01°13' E 103°55'4 4.0
2014-Sep-04 18:31N 01°11' E 103°51'4 4.2
2014-Sep-04 17:32N 01°09' E 103°48'  
Track history (hours):
 
Tides and Currents Weather Stations Pressure Air Temp Water Temp Dewpoint Dewpoint Depression Visibility Wind Speed Wind Dir Waves Ship Positions

Spar Draco

Last reported at 2014-Sep-05 06:09 UTC. Time now 2014-Oct-20 22:57 UTC.
Position N 01°25' E 103°56'.
Warning: this ship's position is 45 days out of date.

Length 190 m; draft 6.7 m.

Type: Other ship. MMSI: 257799000.

Date/timePositionNaut miles runAvg speedWind from/ knotsBaromVisibWave heightAir tempDewpointWater temp
2014-Sep-05 06:09N 01°25' E 103°56'2 3.0
2014-Sep-05 05:31N 01°24' E 103°58'2 2.5
2014-Sep-05 04:33N 01°24' E 103°60'2 2.3
2014-Sep-05 03:33N 01°22' E 104°02'2 1.9
2014-Sep-05 02:32N 01°21' E 104°03'2 1.9
2014-Sep-05 01:15N 01°19' E 104°04'0 0.3
2014-Sep-05 00:30N 01°19' E 104°04'1 0.8
2014-Sep-04 23:33N 01°19' E 104°05'2 2.2
2014-Sep-04 22:32N 01°17' E 104°05'3 3.1
2014-Sep-04 21:33N 01°15' E 104°03'4 4.0
2014-Sep-04 20:33N 01°14' E 103°59'4 4.1
2014-Sep-04 19:33N 01°13' E 103°55'4 4.0
2014-Sep-04 18:31N 01°11' E 103°51'4 4.2
2014-Sep-04 17:32N 01°09' E 103°48'  

Dump ship's entire track history